sensor_id;sensor_type;location;lat;lon;timestamp;P1;durP1;ratioP1;P2;durP2;ratioP2
15261;SDS011;7733;51.554;13.590;2024-02-23T00:00:10;1.07;;;0.60;;
15261;SDS011;7733;51.554;13.590;2024-02-23T00:02:37;0.70;;;0.70;;
15261;SDS011;7733;51.554;13.590;2024-02-23T00:05:03;1.27;;;0.63;;
15261;SDS011;7733;51.554;13.590;2024-02-23T00:07:30;0.50;;;0.50;;
15261;SDS011;7733;51.554;13.590;2024-02-23T00:09:55;0.60;;;0.60;;
15261;SDS011;7733;51.554;13.590;2024-02-23T00:12:21;0.67;;;0.67;;
15261;SDS011;7733;51.554;13.590;2024-02-23T00:14:47;0.40;;;0.40;;
15261;SDS011;7733;51.554;13.590;2024-02-23T00:17:13;4.97;;;0.77;;
15261;SDS011;7733;51.554;13.590;2024-02-23T00:19:38;0.50;;;0.50;;
15261;SDS011;7733;51.554;13.590;2024-02-23T00:22:04;0.50;;;0.50;;
15261;SDS011;7733;51.554;13.590;2024-02-23T00:24:30;0.80;;;0.80;;
15261;SDS011;7733;51.554;13.590;2024-02-23T00:26:56;0.70;;;0.70;;
15261;SDS011;7733;51.554;13.590;2024-02-23T00:29:22;1.13;;;0.50;;
15261;SDS011;7733;51.554;13.590;2024-02-23T00:31:48;0.67;;;0.60;;
15261;SDS011;7733;51.554;13.590;2024-02-23T00:34:14;0.93;;;0.50;;
15261;SDS011;7733;51.554;13.590;2024-02-23T00:36:41;0.93;;;0.50;;
15261;SDS011;7733;51.554;13.590;2024-02-23T00:39:07;0.50;;;0.50;;
15261;SDS011;7733;51.554;13.590;2024-02-23T00:41:34;1.70;;;0.50;;
15261;SDS011;7733;51.554;13.590;2024-02-23T00:44:00;0.60;;;0.60;;
15261;SDS011;7733;51.554;13.590;2024-02-23T00:46:30;0.50;;;0.50;;
15261;SDS011;7733;51.554;13.590;2024-02-23T00:48:56;0.77;;;0.50;;
15261;SDS011;7733;51.554;13.590;2024-02-23T00:51:22;0.57;;;0.57;;
15261;SDS011;7733;51.554;13.590;2024-02-23T00:53:48;1.20;;;0.63;;
15261;SDS011;7733;51.554;13.590;2024-02-23T00:56:13;1.17;;;0.50;;
15261;SDS011;7733;51.554;13.590;2024-02-23T00:58:39;0.70;;;0.70;;
15261;SDS011;7733;51.554;13.590;2024-02-23T01:01:05;0.50;;;0.50;;
15261;SDS011;7733;51.554;13.590;2024-02-23T01:03:31;0.47;;;0.47;;
15261;SDS011;7733;51.554;13.590;2024-02-23T01:05:57;0.43;;;0.43;;
15261;SDS011;7733;51.554;13.590;2024-02-23T01:08:23;0.40;;;0.40;;
15261;SDS011;7733;51.554;13.590;2024-02-23T01:10:49;0.60;;;0.60;;
15261;SDS011;7733;51.554;13.590;2024-02-23T01:13:14;0.50;;;0.50;;
15261;SDS011;7733;51.554;13.590;2024-02-23T01:15:41;0.50;;;0.50;;
15261;SDS011;7733;51.554;13.590;2024-02-23T01:18:07;0.93;;;0.60;;
15261;SDS011;7733;51.554;13.590;2024-02-23T01:20:33;0.50;;;0.50;;
15261;SDS011;7733;51.554;13.590;2024-02-23T01:22:59;1.10;;;0.50;;
15261;SDS011;7733;51.554;13.590;2024-02-23T01:25:25;0.43;;;0.43;;
15261;SDS011;7733;51.554;13.590;2024-02-23T01:27:51;0.67;;;0.40;;
15261;SDS011;7733;51.554;13.590;2024-02-23T01:30:17;0.40;;;0.40;;
15261;SDS011;7733;51.554;13.590;2024-02-23T01:32:43;0.40;;;0.40;;
15261;SDS011;7733;51.554;13.590;2024-02-23T01:35:10;0.47;;;0.47;;
15261;SDS011;7733;51.554;13.590;2024-02-23T01:37:36;0.40;;;0.40;;
15261;SDS011;7733;51.554;13.590;2024-02-23T01:40:02;0.60;;;0.60;;
15261;SDS011;7733;51.554;13.590;2024-02-23T01:42:28;0.50;;;0.50;;
15261;SDS011;7733;51.554;13.590;2024-02-23T01:44:54;0.47;;;0.47;;
15261;SDS011;7733;51.554;13.590;2024-02-23T01:47:23;0.70;;;0.70;;
15261;SDS011;7733;51.554;13.590;2024-02-23T01:49:50;0.40;;;0.40;;
15261;SDS011;7733;51.554;13.590;2024-02-23T01:52:17;0.50;;;0.50;;
15261;SDS011;7733;51.554;13.590;2024-02-23T01:54:44;0.50;;;0.50;;
15261;SDS011;7733;51.554;13.590;2024-02-23T01:57:09;0.47;;;0.47;;
15261;SDS011;7733;51.554;13.590;2024-02-23T01:59:36;0.60;;;0.50;;
15261;SDS011;7733;51.554;13.590;2024-02-23T02:02:04;0.50;;;0.50;;
15261;SDS011;7733;51.554;13.590;2024-02-23T02:04:30;0.63;;;0.63;;
15261;SDS011;7733;51.554;13.590;2024-02-23T02:06:56;0.73;;;0.50;;
15261;SDS011;7733;51.554;13.590;2024-02-23T02:09:24;0.50;;;0.50;;
15261;SDS011;7733;51.554;13.590;2024-02-23T02:11:51;0.40;;;0.40;;
15261;SDS011;7733;51.554;13.590;2024-02-23T02:14:17;0.93;;;0.50;;
15261;SDS011;7733;51.554;13.590;2024-02-23T02:16:43;1.20;;;0.50;;
15261;SDS011;7733;51.554;13.590;2024-02-23T02:19:10;0.50;;;0.50;;
15261;SDS011;7733;51.554;13.590;2024-02-23T02:21:37;0.73;;;0.50;;
15261;SDS011;7733;51.554;13.590;2024-02-23T02:24:03;0.90;;;0.50;;
15261;SDS011;7733;51.554;13.590;2024-02-23T02:26:30;0.50;;;0.50;;
15261;SDS011;7733;51.554;13.590;2024-02-23T02:28:56;0.73;;;0.40;;
15261;SDS011;7733;51.554;13.590;2024-02-23T02:31:21;0.50;;;0.50;;
15261;SDS011;7733;51.554;13.590;2024-02-23T02:33:47;0.57;;;0.40;;
15261;SDS011;7733;51.554;13.590;2024-02-23T02:36:13;0.50;;;0.50;;
15261;SDS011;7733;51.554;13.590;2024-02-23T02:38:39;0.50;;;0.50;;
15261;SDS011;7733;51.554;13.590;2024-02-23T02:41:04;0.47;;;0.47;;
15261;SDS011;7733;51.554;13.590;2024-02-23T02:43:31;0.47;;;0.40;;
15261;SDS011;7733;51.554;13.590;2024-02-23T02:45:57;0.50;;;0.50;;
15261;SDS011;7733;51.554;13.590;2024-02-23T02:48:23;0.60;;;0.60;;
15261;SDS011;7733;51.554;13.590;2024-02-23T02:50:50;1.37;;;0.50;;
15261;SDS011;7733;51.554;13.590;2024-02-23T02:53:16;0.57;;;0.57;;
15261;SDS011;7733;51.554;13.590;2024-02-23T02:55:43;0.30;;;0.30;;
15261;SDS011;7733;51.554;13.590;2024-02-23T02:58:12;0.50;;;0.50;;
15261;SDS011;7733;51.554;13.590;2024-02-23T03:00:38;1.57;;;0.40;;
15261;SDS011;7733;51.554;13.590;2024-02-23T03:03:04;1.50;;;0.47;;
15261;SDS011;7733;51.554;13.590;2024-02-23T03:05:30;1.03;;;0.40;;
15261;SDS011;7733;51.554;13.590;2024-02-23T03:07:56;0.37;;;0.37;;
15261;SDS011;7733;51.554;13.590;2024-02-23T03:10:22;0.43;;;0.43;;
15261;SDS011;7733;51.554;13.590;2024-02-23T03:12:47;0.33;;;0.33;;
15261;SDS011;7733;51.554;13.590;2024-02-23T03:15:13;0.40;;;0.40;;
15261;SDS011;7733;51.554;13.590;2024-02-23T03:17:40;0.40;;;0.40;;
15261;SDS011;7733;51.554;13.590;2024-02-23T03:20:05;0.20;;;0.20;;
15261;SDS011;7733;51.554;13.590;2024-02-23T03:22:35;0.40;;;0.40;;
15261;SDS011;7733;51.554;13.590;2024-02-23T03:25:02;0.20;;;0.20;;
15261;SDS011;7733;51.554;13.590;2024-02-23T03:27:33;0.50;;;0.50;;
15261;SDS011;7733;51.554;13.590;2024-02-23T03:30:03;0.37;;;0.37;;
15261;SDS011;7733;51.554;13.590;2024-02-23T03:32:33;0.67;;;0.57;;
15261;SDS011;7733;51.554;13.590;2024-02-23T03:35:07;0.40;;;0.40;;
15261;SDS011;7733;51.554;13.590;2024-02-23T03:37:33;0.40;;;0.40;;
15261;SDS011;7733;51.554;13.590;2024-02-23T03:39:59;1.13;;;0.40;;
15261;SDS011;7733;51.554;13.590;2024-02-23T03:42:25;0.30;;;0.30;;
15261;SDS011;7733;51.554;13.590;2024-02-23T03:44:52;0.30;;;0.30;;
15261;SDS011;7733;51.554;13.590;2024-02-23T03:47:18;0.30;;;0.30;;
15261;SDS011;7733;51.554;13.590;2024-02-23T03:49:44;0.50;;;0.40;;
15261;SDS011;7733;51.554;13.590;2024-02-23T03:52:09;0.30;;;0.30;;
15261;SDS011;7733;51.554;13.590;2024-02-23T03:54:35;0.30;;;0.30;;
15261;SDS011;7733;51.554;13.590;2024-02-23T03:57:01;0.20;;;0.20;;
15261;SDS011;7733;51.554;13.590;2024-02-23T03:59:27;0.37;;;0.30;;
15261;SDS011;7733;51.554;13.590;2024-02-23T04:01:53;0.43;;;0.43;;
15261;SDS011;7733;51.554;13.590;2024-02-23T04:04:19;0.37;;;0.27;;
15261;SDS011;7733;51.554;13.590;2024-02-23T04:06:45;0.93;;;0.40;;
15261;SDS011;7733;51.554;13.590;2024-02-23T04:09:11;0.30;;;0.30;;
15261;SDS011;7733;51.554;13.590;2024-02-23T04:11:36;0.20;;;0.20;;
15261;SDS011;7733;51.554;13.590;2024-02-23T04:14:02;0.50;;;0.50;;
15261;SDS011;7733;51.554;13.590;2024-02-23T04:16:30;1.13;;;0.20;;
15261;SDS011;7733;51.554;13.590;2024-02-23T04:18:56;2.27;;;0.50;;
15261;SDS011;7733;51.554;13.590;2024-02-23T04:21:22;0.23;;;0.23;;
15261;SDS011;7733;51.554;13.590;2024-02-23T04:23:48;0.47;;;0.40;;
15261;SDS011;7733;51.554;13.590;2024-02-23T04:26:14;1.33;;;0.20;;
15261;SDS011;7733;51.554;13.590;2024-02-23T04:28:40;0.30;;;0.30;;
15261;SDS011;7733;51.554;13.590;2024-02-23T04:31:10;0.30;;;0.30;;
15261;SDS011;7733;51.554;13.590;2024-02-23T04:33:36;0.33;;;0.20;;
15261;SDS011;7733;51.554;13.590;2024-02-23T04:36:03;0.20;;;0.20;;
15261;SDS011;7733;51.554;13.590;2024-02-23T04:38:30;0.47;;;0.47;;
15261;SDS011;7733;51.554;13.590;2024-02-23T04:40:56;0.60;;;0.40;;
15261;SDS011;7733;51.554;13.590;2024-02-23T04:43:23;1.00;;;0.67;;
15261;SDS011;7733;51.554;13.590;2024-02-23T04:45:50;0.40;;;0.30;;
15261;SDS011;7733;51.554;13.590;2024-02-23T04:48:16;1.33;;;0.50;;
15261;SDS011;7733;51.554;13.590;2024-02-23T04:50:42;0.50;;;0.40;;
15261;SDS011;7733;51.554;13.590;2024-02-23T04:53:08;0.40;;;0.30;;
15261;SDS011;7733;51.554;13.590;2024-02-23T04:55:34;0.40;;;0.40;;
15261;SDS011;7733;51.554;13.590;2024-02-23T04:57:59;0.30;;;0.30;;
15261;SDS011;7733;51.554;13.590;2024-02-23T05:00:25;0.30;;;0.30;;
15261;SDS011;7733;51.554;13.590;2024-02-23T05:02:57;1.20;;;0.43;;
15261;SDS011;7733;51.554;13.590;2024-02-23T05:05:28;0.40;;;0.27;;
15261;SDS011;7733;51.554;13.590;2024-02-23T05:07:55;0.97;;;0.40;;
15261;SDS011;7733;51.554;13.590;2024-02-23T05:10:21;0.40;;;0.40;;
15261;SDS011;7733;51.554;13.590;2024-02-23T05:12:47;0.50;;;0.50;;
15261;SDS011;7733;51.554;13.590;2024-02-23T05:15:13;0.50;;;0.40;;
15261;SDS011;7733;51.554;13.590;2024-02-23T05:17:39;0.30;;;0.30;;
15261;SDS011;7733;51.554;13.590;2024-02-23T05:20:05;0.73;;;0.70;;
15261;SDS011;7733;51.554;13.590;2024-02-23T05:22:35;0.43;;;0.40;;
15261;SDS011;7733;51.554;13.590;2024-02-23T05:25:01;0.30;;;0.23;;
15261;SDS011;7733;51.554;13.590;2024-02-23T05:27:29;0.50;;;0.47;;
15261;SDS011;7733;51.554;13.590;2024-02-23T05:29:56;1.27;;;0.40;;
15261;SDS011;7733;51.554;13.590;2024-02-23T05:32:21;0.40;;;0.40;;
15261;SDS011;7733;51.554;13.590;2024-02-23T05:34:47;0.97;;;0.40;;
15261;SDS011;7733;51.554;13.590;2024-02-23T05:37:16;0.60;;;0.40;;
15261;SDS011;7733;51.554;13.590;2024-02-23T05:39:42;0.40;;;0.40;;
15261;SDS011;7733;51.554;13.590;2024-02-23T05:42:09;0.70;;;0.70;;
15261;SDS011;7733;51.554;13.590;2024-02-23T05:44:35;0.20;;;0.20;;
15261;SDS011;7733;51.554;13.590;2024-02-23T05:47:01;0.60;;;0.60;;
15261;SDS011;7733;51.554;13.590;2024-02-23T05:49:27;0.43;;;0.43;;
15261;SDS011;7733;51.554;13.590;2024-02-23T05:51:53;0.73;;;0.60;;
15261;SDS011;7733;51.554;13.590;2024-02-23T05:54:18;1.37;;;0.50;;
15261;SDS011;7733;51.554;13.590;2024-02-23T05:56:44;0.50;;;0.47;;
15261;SDS011;7733;51.554;13.590;2024-02-23T05:59:11;0.70;;;0.50;;
15261;SDS011;7733;51.554;13.590;2024-02-23T06:01:36;1.03;;;0.53;;
15261;SDS011;7733;51.554;13.590;2024-02-23T06:04:02;0.40;;;0.40;;
15261;SDS011;7733;51.554;13.590;2024-02-23T06:06:28;0.87;;;0.40;;
15261;SDS011;7733;51.554;13.590;2024-02-23T06:08:54;0.30;;;0.30;;
15261;SDS011;7733;51.554;13.590;2024-02-23T06:11:20;0.80;;;0.40;;
15261;SDS011;7733;51.554;13.590;2024-02-23T06:13:46;0.40;;;0.40;;
15261;SDS011;7733;51.554;13.590;2024-02-23T06:16:12;0.97;;;0.47;;
15261;SDS011;7733;51.554;13.590;2024-02-23T06:18:38;0.53;;;0.40;;
15261;SDS011;7733;51.554;13.590;2024-02-23T06:21:14;0.97;;;0.50;;
15261;SDS011;7733;51.554;13.590;2024-02-23T06:23:40;0.40;;;0.40;;
15261;SDS011;7733;51.554;13.590;2024-02-23T06:26:06;0.80;;;0.50;;
15261;SDS011;7733;51.554;13.590;2024-02-23T06:28:32;0.40;;;0.40;;
15261;SDS011;7733;51.554;13.590;2024-02-23T06:30:58;0.80;;;0.37;;
15261;SDS011;7733;51.554;13.590;2024-02-23T06:33:24;0.70;;;0.40;;
15261;SDS011;7733;51.554;13.590;2024-02-23T06:35:50;2.23;;;0.60;;
15261;SDS011;7733;51.554;13.590;2024-02-23T06:38:17;1.03;;;0.50;;
15261;SDS011;7733;51.554;13.590;2024-02-23T06:40:43;0.40;;;0.40;;
15261;SDS011;7733;51.554;13.590;2024-02-23T06:43:09;0.60;;;0.50;;
15261;SDS011;7733;51.554;13.590;2024-02-23T06:45:34;1.53;;;0.37;;
15261;SDS011;7733;51.554;13.590;2024-02-23T06:48:00;0.57;;;0.30;;
15261;SDS011;7733;51.554;13.590;2024-02-23T06:50:26;0.50;;;0.30;;
15261;SDS011;7733;51.554;13.590;2024-02-23T06:52:51;0.33;;;0.33;;
15261;SDS011;7733;51.554;13.590;2024-02-23T06:55:17;0.50;;;0.40;;
15261;SDS011;7733;51.554;13.590;2024-02-23T06:57:43;1.53;;;0.70;;
15261;SDS011;7733;51.554;13.590;2024-02-23T07:00:09;1.57;;;0.40;;
15261;SDS011;7733;51.554;13.590;2024-02-23T07:02:35;0.47;;;0.30;;
15261;SDS011;7733;51.554;13.590;2024-02-23T07:05:02;0.97;;;0.43;;
15261;SDS011;7733;51.554;13.590;2024-02-23T07:07:32;0.40;;;0.37;;
15261;SDS011;7733;51.554;13.590;2024-02-23T07:10:00;0.60;;;0.40;;
15261;SDS011;7733;51.554;13.590;2024-02-23T07:12:26;0.47;;;0.47;;
15261;SDS011;7733;51.554;13.590;2024-02-23T07:14:56;0.57;;;0.50;;
15261;SDS011;7733;51.554;13.590;2024-02-23T07:17:21;1.53;;;0.47;;
15261;SDS011;7733;51.554;13.590;2024-02-23T07:19:47;1.03;;;0.57;;
15261;SDS011;7733;51.554;13.590;2024-02-23T07:22:13;0.97;;;0.50;;
15261;SDS011;7733;51.554;13.590;2024-02-23T07:24:41;1.33;;;0.40;;
15261;SDS011;7733;51.554;13.590;2024-02-23T07:27:09;0.40;;;0.40;;
15261;SDS011;7733;51.554;13.590;2024-02-23T07:29:35;0.40;;;0.40;;
15261;SDS011;7733;51.554;13.590;2024-02-23T07:32:01;1.20;;;0.50;;
15261;SDS011;7733;51.554;13.590;2024-02-23T07:34:27;0.67;;;0.40;;
15261;SDS011;7733;51.554;13.590;2024-02-23T07:36:54;0.90;;;0.73;;
15261;SDS011;7733;51.554;13.590;2024-02-23T07:39:20;0.50;;;0.40;;
15261;SDS011;7733;51.554;13.590;2024-02-23T07:41:47;0.60;;;0.30;;
15261;SDS011;7733;51.554;13.590;2024-02-23T07:44:13;1.30;;;0.30;;
15261;SDS011;7733;51.554;13.590;2024-02-23T07:46:38;0.40;;;0.40;;
15261;SDS011;7733;51.554;13.590;2024-02-23T07:49:04;0.40;;;0.40;;
15261;SDS011;7733;51.554;13.590;2024-02-23T07:51:34;0.93;;;0.33;;
15261;SDS011;7733;51.554;13.590;2024-02-23T07:54:00;0.30;;;0.30;;
15261;SDS011;7733;51.554;13.590;2024-02-23T07:56:27;0.67;;;0.50;;
15261;SDS011;7733;51.554;13.590;2024-02-23T07:58:53;0.30;;;0.30;;
15261;SDS011;7733;51.554;13.590;2024-02-23T08:01:19;0.40;;;0.40;;
15261;SDS011;7733;51.554;13.590;2024-02-23T08:03:45;0.20;;;0.20;;
15261;SDS011;7733;51.554;13.590;2024-02-23T08:06:11;0.30;;;0.30;;
15261;SDS011;7733;51.554;13.590;2024-02-23T08:08:38;0.40;;;0.40;;
15261;SDS011;7733;51.554;13.590;2024-02-23T08:11:03;0.30;;;0.30;;
15261;SDS011;7733;51.554;13.590;2024-02-23T08:13:30;0.63;;;0.40;;
15261;SDS011;7733;51.554;13.590;2024-02-23T08:15:57;0.73;;;0.30;;
15261;SDS011;7733;51.554;13.590;2024-02-23T08:18:23;0.20;;;0.20;;
15261;SDS011;7733;51.554;13.590;2024-02-23T08:20:49;0.30;;;0.20;;
15261;SDS011;7733;51.554;13.590;2024-02-23T08:23:14;0.20;;;0.20;;
15261;SDS011;7733;51.554;13.590;2024-02-23T08:25:40;0.40;;;0.30;;
15261;SDS011;7733;51.554;13.590;2024-02-23T08:28:06;0.30;;;0.30;;
15261;SDS011;7733;51.554;13.590;2024-02-23T08:30:32;0.23;;;0.23;;
15261;SDS011;7733;51.554;13.590;2024-02-23T08:32:58;0.93;;;0.53;;
15261;SDS011;7733;51.554;13.590;2024-02-23T08:35:24;0.43;;;0.43;;
15261;SDS011;7733;51.554;13.590;2024-02-23T08:37:50;0.57;;;0.30;;
15261;SDS011;7733;51.554;13.590;2024-02-23T08:40:16;0.40;;;0.40;;
15261;SDS011;7733;51.554;13.590;2024-02-23T08:42:42;0.77;;;0.40;;
15261;SDS011;7733;51.554;13.590;2024-02-23T08:45:08;0.40;;;0.33;;
15261;SDS011;7733;51.554;13.590;2024-02-23T08:47:38;0.30;;;0.30;;
15261;SDS011;7733;51.554;13.590;2024-02-23T08:50:07;0.37;;;0.27;;
15261;SDS011;7733;51.554;13.590;2024-02-23T08:52:33;0.77;;;0.30;;
15261;SDS011;7733;51.554;13.590;2024-02-23T08:54:58;1.23;;;0.30;;
15261;SDS011;7733;51.554;13.590;2024-02-23T08:57:27;0.40;;;0.20;;
15261;SDS011;7733;51.554;13.590;2024-02-23T08:59:53;0.33;;;0.33;;
15261;SDS011;7733;51.554;13.590;2024-02-23T09:02:19;0.50;;;0.50;;
15261;SDS011;7733;51.554;13.590;2024-02-23T09:04:45;0.50;;;0.40;;
15261;SDS011;7733;51.554;13.590;2024-02-23T09:07:11;0.17;;;0.17;;
15261;SDS011;7733;51.554;13.590;2024-02-23T09:09:37;0.30;;;0.27;;
15261;SDS011;7733;51.554;13.590;2024-02-23T09:12:03;0.83;;;0.50;;
15261;SDS011;7733;51.554;13.590;2024-02-23T09:14:31;0.40;;;0.30;;
15261;SDS011;7733;51.554;13.590;2024-02-23T09:16:58;0.40;;;0.40;;
15261;SDS011;7733;51.554;13.590;2024-02-23T09:19:24;0.80;;;0.40;;
15261;SDS011;7733;51.554;13.590;2024-02-23T09:21:49;0.50;;;0.50;;
15261;SDS011;7733;51.554;13.590;2024-02-23T09:24:15;0.43;;;0.40;;
15261;SDS011;7733;51.554;13.590;2024-02-23T09:26:41;1.07;;;0.40;;
15261;SDS011;7733;51.554;13.590;2024-02-23T09:29:07;0.60;;;0.50;;
15261;SDS011;7733;51.554;13.590;2024-02-23T09:31:32;0.70;;;0.40;;
15261;SDS011;7733;51.554;13.590;2024-02-23T09:33:58;0.20;;;0.20;;
15261;SDS011;7733;51.554;13.590;2024-02-23T09:36:24;0.47;;;0.40;;
15261;SDS011;7733;51.554;13.590;2024-02-23T09:38:50;0.97;;;0.40;;
15261;SDS011;7733;51.554;13.590;2024-02-23T09:41:19;0.60;;;0.40;;
15261;SDS011;7733;51.554;13.590;2024-02-23T09:43:47;0.40;;;0.30;;
15261;SDS011;7733;51.554;13.590;2024-02-23T09:46:17;0.57;;;0.47;;
15261;SDS011;7733;51.554;13.590;2024-02-23T09:48:44;0.50;;;0.50;;
15261;SDS011;7733;51.554;13.590;2024-02-23T09:51:14;0.40;;;0.40;;
15261;SDS011;7733;51.554;13.590;2024-02-23T09:53:40;0.33;;;0.33;;
15261;SDS011;7733;51.554;13.590;2024-02-23T09:56:10;0.47;;;0.47;;
15261;SDS011;7733;51.554;13.590;2024-02-23T09:58:36;0.70;;;0.30;;
15261;SDS011;7733;51.554;13.590;2024-02-23T10:01:03;0.50;;;0.50;;
15261;SDS011;7733;51.554;13.590;2024-02-23T10:03:29;0.70;;;0.40;;
15261;SDS011;7733;51.554;13.590;2024-02-23T10:05:58;0.40;;;0.40;;
15261;SDS011;7733;51.554;13.590;2024-02-23T10:08:27;0.53;;;0.53;;
15261;SDS011;7733;51.554;13.590;2024-02-23T10:10:54;1.27;;;0.33;;
15261;SDS011;7733;51.554;13.590;2024-02-23T10:13:21;1.10;;;0.50;;
15261;SDS011;7733;51.554;13.590;2024-02-23T10:15:52;0.37;;;0.37;;
15261;SDS011;7733;51.554;13.590;2024-02-23T10:18:18;0.60;;;0.50;;
15261;SDS011;7733;51.554;13.590;2024-02-23T10:20:44;0.60;;;0.40;;
15261;SDS011;7733;51.554;13.590;2024-02-23T10:23:12;0.40;;;0.40;;
15261;SDS011;7733;51.554;13.590;2024-02-23T10:25:38;1.03;;;0.30;;
15261;SDS011;7733;51.554;13.590;2024-02-23T10:28:05;0.83;;;0.50;;
15261;SDS011;7733;51.554;13.590;2024-02-23T10:30:31;0.60;;;0.60;;
15261;SDS011;7733;51.554;13.590;2024-02-23T10:32:58;0.40;;;0.40;;
15261;SDS011;7733;51.554;13.590;2024-02-23T10:35:25;0.40;;;0.40;;
15261;SDS011;7733;51.554;13.590;2024-02-23T10:37:53;0.60;;;0.47;;
15261;SDS011;7733;51.554;13.590;2024-02-23T10:40:20;0.60;;;0.50;;
15261;SDS011;7733;51.554;13.590;2024-02-23T10:42:49;0.67;;;0.50;;
15261;SDS011;7733;51.554;13.590;2024-02-23T10:45:19;1.03;;;0.50;;
15261;SDS011;7733;51.554;13.590;2024-02-23T10:47:49;0.47;;;0.47;;
15261;SDS011;7733;51.554;13.590;2024-02-23T10:50:19;1.80;;;0.60;;
15261;SDS011;7733;51.554;13.590;2024-02-23T10:52:47;0.53;;;0.53;;
15261;SDS011;7733;51.554;13.590;2024-02-23T10:55:15;0.50;;;0.50;;
15261;SDS011;7733;51.554;13.590;2024-02-23T10:57:41;0.67;;;0.53;;
15261;SDS011;7733;51.554;13.590;2024-02-23T11:00:08;0.60;;;0.60;;
15261;SDS011;7733;51.554;13.590;2024-02-23T11:02:36;1.30;;;0.53;;
15261;SDS011;7733;51.554;13.590;2024-02-23T11:05:08;0.70;;;0.60;;
15261;SDS011;7733;51.554;13.590;2024-02-23T11:07:40;0.57;;;0.40;;
15261;SDS011;7733;51.554;13.590;2024-02-23T11:10:06;1.73;;;0.50;;
15261;SDS011;7733;51.554;13.590;2024-02-23T11:12:34;0.40;;;0.40;;
15261;SDS011;7733;51.554;13.590;2024-02-23T11:15:01;0.77;;;0.50;;
15261;SDS011;7733;51.554;13.590;2024-02-23T11:17:29;1.60;;;0.80;;
15261;SDS011;7733;51.554;13.590;2024-02-23T11:19:57;0.50;;;0.40;;
15261;SDS011;7733;51.554;13.590;2024-02-23T11:22:27;0.77;;;0.77;;
15261;SDS011;7733;51.554;13.590;2024-02-23T11:25:04;1.50;;;1.40;;
15261;SDS011;7733;51.554;13.590;2024-02-23T11:27:36;0.53;;;0.50;;
15261;SDS011;7733;51.554;13.590;2024-02-23T11:30:06;0.70;;;0.70;;
15261;SDS011;7733;51.554;13.590;2024-02-23T11:32:38;0.80;;;0.50;;
15261;SDS011;7733;51.554;13.590;2024-02-23T11:35:11;0.90;;;0.60;;
15261;SDS011;7733;51.554;13.590;2024-02-23T11:40:23;1.40;;;0.80;;
15261;SDS011;7733;51.554;13.590;2024-02-23T11:42:55;0.60;;;0.60;;
15261;SDS011;7733;51.554;13.590;2024-02-23T11:45:21;0.53;;;0.50;;
15261;SDS011;7733;51.554;13.590;2024-02-23T11:47:47;0.40;;;0.40;;
15261;SDS011;7733;51.554;13.590;2024-02-23T11:50:13;2.47;;;0.80;;
15261;SDS011;7733;51.554;13.590;2024-02-23T11:52:40;1.60;;;0.70;;
15261;SDS011;7733;51.554;13.590;2024-02-23T11:55:06;0.80;;;0.60;;
15261;SDS011;7733;51.554;13.590;2024-02-23T11:57:35;0.70;;;0.60;;
15261;SDS011;7733;51.554;13.590;2024-02-23T12:00:03;0.60;;;0.50;;
15261;SDS011;7733;51.554;13.590;2024-02-23T12:02:35;0.60;;;0.50;;
15261;SDS011;7733;51.554;13.590;2024-02-23T12:05:01;0.50;;;0.50;;
15261;SDS011;7733;51.554;13.590;2024-02-23T12:07:30;1.03;;;0.70;;
15261;SDS011;7733;51.554;13.590;2024-02-23T12:09:58;1.37;;;0.80;;
15261;SDS011;7733;51.554;13.590;2024-02-23T12:12:27;2.10;;;0.70;;
15261;SDS011;7733;51.554;13.590;2024-02-23T12:14:52;1.23;;;0.80;;
15261;SDS011;7733;51.554;13.590;2024-02-23T12:17:19;0.57;;;0.50;;
15261;SDS011;7733;51.554;13.590;2024-02-23T12:19:45;0.50;;;0.43;;
15261;SDS011;7733;51.554;13.590;2024-02-23T12:22:10;1.27;;;0.67;;
15261;SDS011;7733;51.554;13.590;2024-02-23T12:24:40;1.10;;;0.67;;
15261;SDS011;7733;51.554;13.590;2024-02-23T12:27:06;0.53;;;0.53;;
15261;SDS011;7733;51.554;13.590;2024-02-23T12:29:32;0.70;;;0.70;;
15261;SDS011;7733;51.554;13.590;2024-02-23T12:32:05;0.80;;;0.80;;
15261;SDS011;7733;51.554;13.590;2024-02-23T12:34:31;0.93;;;0.60;;
15261;SDS011;7733;51.554;13.590;2024-02-23T12:36:58;1.07;;;0.57;;
15261;SDS011;7733;51.554;13.590;2024-02-23T12:39:24;1.70;;;0.63;;
15261;SDS011;7733;51.554;13.590;2024-02-23T12:41:50;2.10;;;0.90;;
15261;SDS011;7733;51.554;13.590;2024-02-23T12:44:16;0.97;;;0.80;;
15261;SDS011;7733;51.554;13.590;2024-02-23T12:46:42;1.07;;;0.90;;
15261;SDS011;7733;51.554;13.590;2024-02-23T12:49:10;1.13;;;0.50;;
15261;SDS011;7733;51.554;13.590;2024-02-23T12:51:35;0.70;;;0.70;;
15261;SDS011;7733;51.554;13.590;2024-02-23T12:54:01;0.50;;;0.50;;
15261;SDS011;7733;51.554;13.590;2024-02-23T12:56:27;0.80;;;0.63;;
15261;SDS011;7733;51.554;13.590;2024-02-23T12:58:53;0.90;;;0.63;;
15261;SDS011;7733;51.554;13.590;2024-02-23T13:01:19;0.57;;;0.50;;
15261;SDS011;7733;51.554;13.590;2024-02-23T13:03:45;0.63;;;0.50;;
15261;SDS011;7733;51.554;13.590;2024-02-23T13:06:10;0.50;;;0.50;;
15261;SDS011;7733;51.554;13.590;2024-02-23T13:08:38;2.43;;;2.30;;
15261;SDS011;7733;51.554;13.590;2024-02-23T13:11:05;1.67;;;1.30;;
15261;SDS011;7733;51.554;13.590;2024-02-23T13:13:31;1.13;;;1.13;;
15261;SDS011;7733;51.554;13.590;2024-02-23T13:15:58;3.97;;;2.97;;
15261;SDS011;7733;51.554;13.590;2024-02-23T13:18:23;17.10;;;12.87;;
15261;SDS011;7733;51.554;13.590;2024-02-23T13:20:49;6.43;;;5.87;;
15261;SDS011;7733;51.554;13.590;2024-02-23T13:23:16;8.87;;;7.90;;
15261;SDS011;7733;51.554;13.590;2024-02-23T13:25:42;6.70;;;5.53;;
15261;SDS011;7733;51.554;13.590;2024-02-23T13:28:10;2.67;;;1.63;;
15261;SDS011;7733;51.554;13.590;2024-02-23T13:30:36;1.17;;;0.87;;
15261;SDS011;7733;51.554;13.590;2024-02-23T13:33:03;0.70;;;0.70;;
15261;SDS011;7733;51.554;13.590;2024-02-23T13:35:31;1.60;;;0.90;;
15261;SDS011;7733;51.554;13.590;2024-02-23T13:37:57;1.20;;;0.67;;
15261;SDS011;7733;51.554;13.590;2024-02-23T13:40:22;1.13;;;0.93;;
15261;SDS011;7733;51.554;13.590;2024-02-23T13:42:48;1.23;;;0.70;;
15261;SDS011;7733;51.554;13.590;2024-02-23T13:45:15;0.60;;;0.60;;
15261;SDS011;7733;51.554;13.590;2024-02-23T13:47:42;0.70;;;0.70;;
15261;SDS011;7733;51.554;13.590;2024-02-23T13:50:20;0.87;;;0.50;;
15261;SDS011;7733;51.554;13.590;2024-02-23T13:52:47;1.83;;;0.80;;
15261;SDS011;7733;51.554;13.590;2024-02-23T13:55:13;1.10;;;1.00;;
15261;SDS011;7733;51.554;13.590;2024-02-23T13:57:39;1.50;;;0.60;;
15261;SDS011;7733;51.554;13.590;2024-02-23T14:00:05;2.27;;;1.03;;
15261;SDS011;7733;51.554;13.590;2024-02-23T14:02:37;0.80;;;0.80;;
15261;SDS011;7733;51.554;13.590;2024-02-23T14:05:05;1.20;;;0.87;;
15261;SDS011;7733;51.554;13.590;2024-02-23T14:07:32;0.77;;;0.70;;
15261;SDS011;7733;51.554;13.590;2024-02-23T14:09:58;0.73;;;0.73;;
15261;SDS011;7733;51.554;13.590;2024-02-23T14:12:24;0.97;;;0.67;;
15261;SDS011;7733;51.554;13.590;2024-02-23T14:14:50;1.20;;;0.80;;
15261;SDS011;7733;51.554;13.590;2024-02-23T14:17:16;2.00;;;0.97;;
15261;SDS011;7733;51.554;13.590;2024-02-23T14:19:42;1.90;;;0.90;;
15261;SDS011;7733;51.554;13.590;2024-02-23T14:22:07;1.07;;;0.60;;
15261;SDS011;7733;51.554;13.590;2024-02-23T14:24:33;1.40;;;0.93;;
15261;SDS011;7733;51.554;13.590;2024-02-23T14:26:59;0.67;;;0.50;;
15261;SDS011;7733;51.554;13.590;2024-02-23T14:29:25;1.13;;;0.63;;
15261;SDS011;7733;51.554;13.590;2024-02-23T14:31:51;1.33;;;0.80;;
15261;SDS011;7733;51.554;13.590;2024-02-23T14:34:17;1.33;;;0.60;;
15261;SDS011;7733;51.554;13.590;2024-02-23T14:36:42;0.70;;;0.70;;
15261;SDS011;7733;51.554;13.590;2024-02-23T14:39:09;0.80;;;0.70;;
15261;SDS011;7733;51.554;13.590;2024-02-23T14:41:35;2.83;;;0.73;;
15261;SDS011;7733;51.554;13.590;2024-02-23T14:44:01;0.97;;;0.53;;
15261;SDS011;7733;51.554;13.590;2024-02-23T14:46:27;1.50;;;0.80;;